createdAt,value
2018-05-13T00:02:22.838Z,15.60
2018-05-13T00:04:53.082Z,15.50
2018-05-13T00:07:23.289Z,15.60
2018-05-13T00:09:53.613Z,15.50
2018-05-13T00:12:24.678Z,15.40
2018-05-13T00:14:54.944Z,15.30
2018-05-13T00:17:26.568Z,15.30
2018-05-13T00:19:56.812Z,15.30
2018-05-13T00:22:27.754Z,15.30
2018-05-13T00:25:19.593Z,15.30
2018-05-13T00:27:49.821Z,15.20
2018-05-13T00:30:20.034Z,15.20
2018-05-13T00:32:51.593Z,15.20
2018-05-13T00:35:22.576Z,15.20
2018-05-13T00:37:52.758Z,15.20
2018-05-13T00:40:23.042Z,15.20
2018-05-13T00:42:53.399Z,15.10
2018-05-13T00:45:23.639Z,15.10
2018-05-13T00:48:12.985Z,15.10
2018-05-13T00:50:43.371Z,15.00
2018-05-13T00:53:13.529Z,15.10
2018-05-13T00:55:43.812Z,15.00
2018-05-13T00:58:19.627Z,15.00
2018-05-13T01:00:49.945Z,15.00
2018-05-13T01:03:20.191Z,15.00
2018-05-13T01:05:50.458Z,14.90
2018-05-13T01:08:20.849Z,14.90
2018-05-13T01:10:51.262Z,14.90
2018-05-13T01:13:27.410Z,14.90
2018-05-13T01:15:57.762Z,14.90
2018-05-13T01:18:28.081Z,14.80
2018-05-13T01:20:58.349Z,14.80
2018-05-13T01:23:29.454Z,14.70
2018-05-13T01:25:59.650Z,14.70
2018-05-13T01:28:29.839Z,14.70
2018-05-13T01:31:00.129Z,14.70
2018-05-13T01:33:30.381Z,14.70
2018-05-13T01:36:00.769Z,14.60
2018-05-13T01:38:30.991Z,14.60
2018-05-13T01:41:01.285Z,14.60
2018-05-13T01:43:31.586Z,14.60
2018-05-13T01:46:01.936Z,14.60
2018-05-13T01:48:32.893Z,14.60
2018-05-13T01:51:03.029Z,14.60
2018-05-13T01:53:33.274Z,14.60
2018-05-13T01:56:04.919Z,14.60
2018-05-13T01:58:35.253Z,14.60
2018-05-13T02:01:05.420Z,14.60
2018-05-13T02:03:35.664Z,14.60
2018-05-13T02:06:05.942Z,14.60
2018-05-13T02:08:36.153Z,14.60
2018-05-13T02:11:06.302Z,14.60
2018-05-13T02:13:36.410Z,14.60
2018-05-13T02:16:07.367Z,14.50
2018-05-13T02:18:37.501Z,14.50
2018-05-13T02:21:07.610Z,14.40
2018-05-13T02:23:37.810Z,14.40
2018-05-13T02:26:07.984Z,14.30
2018-05-13T02:28:38.154Z,14.30
2018-05-13T02:31:12.050Z,14.30
2018-05-13T02:33:42.225Z,14.40
2018-05-13T02:36:12.753Z,14.40
2018-05-13T02:38:43.273Z,14.30
2018-05-13T02:41:13.418Z,14.30
2018-05-13T02:43:43.662Z,14.30
2018-05-13T02:46:16.231Z,14.30
2018-05-13T02:48:46.464Z,14.40
2018-05-13T02:51:16.638Z,14.40
2018-05-13T02:53:47.109Z,14.40
2018-05-13T02:56:17.465Z,14.40
2018-05-13T02:58:48.413Z,14.40
2018-05-13T03:01:18.633Z,14.40
2018-05-13T03:03:49.549Z,14.30
2018-05-13T03:06:35.450Z,14.20
2018-05-13T03:09:06.846Z,14.30
2018-05-13T03:11:37.087Z,14.20
2018-05-13T03:14:07.694Z,14.30
2018-05-13T03:16:37.833Z,14.30
2018-05-13T03:19:08.111Z,14.20
2018-05-13T03:21:38.447Z,14.20
2018-05-13T03:24:08.733Z,14.10
2018-05-13T03:26:43.517Z,14.20
2018-05-13T03:29:13.985Z,14.10
2018-05-13T03:31:44.147Z,14.10
2018-05-13T03:34:14.297Z,14.10
2018-05-13T03:36:44.589Z,14.10
2018-05-13T03:39:15.144Z,14.10
2018-05-13T03:41:45.338Z,14.00
2018-05-13T03:44:15.541Z,14.10
2018-05-13T03:46:45.914Z,14.10
2018-05-13T03:49:16.078Z,14.00
2018-05-13T03:51:46.281Z,14.00
2018-05-13T03:54:16.462Z,14.10
2018-05-13T03:56:46.618Z,14.10
2018-05-13T03:59:16.765Z,14.00
2018-05-13T04:01:46.979Z,14.00
2018-05-13T04:04:17.562Z,14.00
2018-05-13T04:06:47.728Z,14.00
2018-05-13T04:13:40.340Z,14.00
2018-05-13T04:16:29.770Z,14.10
2018-05-13T04:19:00.046Z,14.10
2018-05-13T04:21:30.275Z,14.10
2018-05-13T04:24:00.946Z,14.10
2018-05-13T04:26:31.518Z,14.10
2018-05-13T04:29:01.991Z,14.10
2018-05-13T04:31:36.220Z,14.20
2018-05-13T04:34:06.387Z,14.20
2018-05-13T04:36:36.589Z,14.20
2018-05-13T04:39:12.780Z,14.30
2018-05-13T04:41:46.601Z,14.30
2018-05-13T04:44:29.757Z,14.30
2018-05-13T04:47:12.192Z,14.40
2018-05-13T04:50:04.814Z,14.40
2018-05-13T04:52:40.768Z,14.50
2018-05-13T04:55:16.482Z,14.60
2018-05-13T04:57:52.687Z,14.60
2018-05-13T05:00:30.784Z,14.60
2018-05-13T05:03:09.595Z,14.60
2018-05-13T05:06:00.456Z,14.60
2018-05-13T05:08:38.827Z,14.60
2018-05-13T05:11:15.365Z,14.70
2018-05-13T05:14:02.610Z,14.70
2018-05-13T05:16:44.980Z,14.70
2018-05-13T05:19:31.289Z,14.90
2018-05-13T05:22:44.147Z,14.80
2018-05-13T05:25:20.486Z,15.00
2018-05-13T05:28:00.411Z,15.10
2018-05-13T05:30:32.069Z,15.30
2018-05-13T05:33:02.555Z,15.20
2018-05-13T05:35:32.783Z,15.30
2018-05-13T05:38:03.061Z,15.40
2018-05-13T05:40:33.310Z,15.50
2018-05-13T05:43:03.573Z,15.60
2018-05-13T05:45:33.797Z,15.70
2018-05-13T05:48:04.072Z,15.70
2018-05-13T05:50:40.363Z,15.80
2018-05-13T05:53:10.601Z,15.90
2018-05-13T05:55:40.878Z,16.00
2018-05-13T05:58:12.666Z,16.10
2018-05-13T06:00:43.665Z,16.40
2018-05-13T06:03:14.764Z,16.50
2018-05-13T06:05:51.342Z,16.50
2018-05-13T06:08:21.626Z,16.60
2018-05-13T06:10:51.938Z,16.70
2018-05-13T06:13:22.139Z,16.80
2018-05-13T06:15:58.754Z,16.90
2018-05-13T06:18:29.053Z,17.00
2018-05-13T06:20:59.368Z,17.10
2018-05-13T06:23:30.342Z,17.40
2018-05-13T06:26:00.577Z,17.30
2018-05-13T06:28:30.929Z,17.50
2018-05-13T06:31:01.637Z,17.60
2018-05-13T06:33:31.948Z,17.80
2018-05-13T06:36:02.182Z,17.90
2018-05-13T06:38:32.686Z,18.10
2018-05-13T06:41:03.023Z,18.20
2018-05-13T06:43:33.305Z,18.20
2018-05-13T06:46:03.627Z,18.30
2018-05-13T06:48:34.115Z,18.30
2018-05-13T06:51:05.358Z,18.60
2018-05-13T06:53:35.469Z,18.60
2018-05-13T06:56:05.875Z,18.80
2018-05-13T06:58:38.431Z,19.20
2018-05-13T07:01:08.675Z,19.10
2018-05-13T07:03:39.715Z,19.30
2018-05-13T07:06:09.905Z,19.30
2018-05-13T07:08:40.153Z,19.50
2018-05-13T07:11:22.098Z,19.70
2018-05-13T07:13:52.587Z,19.90
2018-05-13T07:16:22.943Z,20.10
2018-05-13T07:18:53.411Z,20.50
2018-05-13T07:21:23.680Z,20.70
2018-05-13T07:23:53.957Z,21.00
2018-05-13T07:26:35.505Z,21.00
2018-05-13T07:29:05.939Z,21.20
2018-05-13T07:31:36.957Z,21.80
2018-05-13T07:34:07.217Z,21.80
2018-05-13T07:36:37.597Z,22.10
2018-05-13T07:39:07.876Z,22.40
2018-05-13T07:41:38.204Z,22.70
2018-05-13T07:44:09.161Z,23.10
2018-05-13T07:46:39.570Z,23.60
2018-05-13T07:49:09.877Z,23.60
2018-05-13T07:51:40.170Z,23.70
2018-05-13T07:54:10.398Z,23.60
2018-05-13T07:56:42.862Z,22.90
2018-05-13T07:59:13.217Z,23.10
2018-05-13T08:01:43.649Z,22.10
2018-05-13T08:04:14.754Z,23.50
2018-05-13T08:06:45.292Z,23.60
2018-05-13T08:09:24.243Z,24.00
2018-05-13T08:11:56.022Z,24.70
2018-05-13T08:14:28.072Z,24.70
2018-05-13T08:17:08.997Z,24.40
2018-05-13T08:19:39.847Z,25.00
2018-05-13T08:22:11.043Z,25.60
2018-05-13T08:27:20.156Z,26.10
2018-05-13T08:30:04.958Z,26.40
2018-05-13T08:32:35.964Z,26.60
2018-05-13T08:35:06.390Z,26.80
2018-05-13T08:37:53.434Z,27.10
2018-05-13T08:40:23.808Z,27.20
2018-05-13T08:46:13.157Z,27.60
2018-05-13T08:48:43.723Z,28.10
2018-05-13T08:51:14.756Z,28.20
2018-05-13T08:53:50.362Z,28.10
2018-05-13T08:56:21.790Z,28.00
2018-05-13T08:58:52.130Z,27.30
2018-05-13T09:01:22.681Z,26.10
2018-05-13T09:04:10.437Z,26.30
2018-05-13T09:06:40.866Z,26.70
2018-05-13T09:09:14.553Z,26.70
2018-05-13T09:11:45.027Z,26.90
2018-05-13T09:14:16.363Z,27.80
2018-05-13T09:16:46.927Z,28.00
2018-05-13T09:19:18.043Z,28.10
2018-05-13T09:21:48.766Z,28.50
2018-05-13T09:24:19.235Z,28.90
2018-05-13T09:26:56.878Z,29.20
2018-05-13T09:29:28.038Z,28.30
2018-05-13T09:31:59.802Z,28.40
2018-05-13T09:34:31.710Z,28.40
2018-05-13T09:37:03.571Z,28.90
2018-05-13T09:39:34.979Z,29.30
2018-05-13T09:42:06.215Z,29.50
2018-05-13T09:44:37.589Z,29.90
2018-05-13T09:47:08.674Z,28.60
2018-05-13T09:49:39.783Z,28.90
2018-05-13T09:52:11.571Z,29.80
2018-05-13T09:54:47.161Z,29.80
2018-05-13T09:57:18.582Z,29.60
2018-05-13T09:59:51.832Z,28.70
2018-05-13T10:02:23.571Z,29.10
2018-05-13T10:04:55.805Z,30.10
2018-05-13T10:07:27.619Z,30.10
2018-05-13T10:09:59.194Z,30.60
2018-05-13T10:12:31.636Z,31.00
2018-05-13T10:15:03.813Z,31.10
2018-05-13T10:17:34.788Z,31.60
2018-05-13T10:20:06.054Z,31.20
2018-05-13T10:22:38.077Z,30.80
2018-05-13T10:25:09.634Z,29.80
2018-05-13T10:27:41.163Z,29.60
2018-05-13T10:30:13.484Z,30.30
2018-05-13T10:32:44.510Z,30.60
2018-05-13T10:35:16.808Z,30.90
2018-05-13T10:37:47.665Z,31.30
2018-05-13T10:40:20.621Z,31.60
2018-05-13T10:42:51.937Z,31.90
2018-05-13T10:45:23.798Z,31.20
2018-05-13T10:47:55.785Z,31.20
2018-05-13T10:50:27.748Z,32.40
2018-05-13T10:52:58.765Z,32.30
2018-05-13T10:55:29.627Z,32.70
2018-05-13T10:58:00.555Z,32.30
2018-05-13T11:00:38.847Z,30.70
2018-05-13T11:03:09.732Z,29.50
2018-05-13T11:05:40.919Z,30.30
2018-05-13T11:08:27.134Z,29.60
2018-05-13T11:10:57.844Z,30.40
2018-05-13T11:13:29.951Z,31.20
2018-05-13T11:16:02.715Z,32.00
2018-05-13T11:18:34.339Z,32.40
2018-05-13T11:21:05.183Z,32.40
2018-05-13T11:23:36.610Z,30.80
2018-05-13T11:26:07.771Z,30.80
2018-05-13T11:28:38.638Z,31.00
2018-05-13T11:31:09.752Z,31.60
2018-05-13T11:33:41.637Z,32.20
2018-05-13T11:36:15.994Z,32.50
2018-05-13T11:38:49.062Z,32.80
2018-05-13T11:41:24.025Z,32.70
2018-05-13T11:43:56.330Z,32.70
2018-05-13T11:46:29.252Z,32.70
2018-05-13T11:49:01.016Z,32.60
2018-05-13T11:51:32.318Z,32.60
2018-05-13T11:54:03.014Z,32.80
2018-05-13T11:56:35.757Z,32.80
2018-05-13T11:59:06.793Z,33.00
2018-05-13T12:01:37.953Z,33.30
2018-05-13T12:04:11.802Z,33.60
2018-05-13T12:06:43.283Z,33.50
2018-05-13T12:09:15.365Z,33.20
2018-05-13T12:11:47.319Z,32.00
2018-05-13T12:14:19.604Z,32.00
2018-05-13T12:16:51.757Z,31.90
2018-05-13T12:19:23.002Z,31.90
2018-05-13T12:21:53.437Z,31.00
2018-05-13T12:24:23.872Z,31.00
2018-05-13T12:26:55.616Z,30.80
2018-05-13T12:29:26.159Z,30.90
2018-05-13T12:31:56.741Z,31.30
2018-05-13T12:34:27.148Z,31.70
2018-05-13T12:36:57.728Z,31.50
2018-05-13T12:39:28.113Z,31.00
2018-05-13T12:42:03.396Z,30.30
2018-05-13T12:44:33.818Z,29.10
2018-05-13T12:47:04.274Z,28.80
2018-05-13T12:49:35.027Z,28.50
2018-05-13T12:52:07.052Z,28.70
2018-05-13T12:54:37.677Z,28.80
2018-05-13T12:57:08.415Z,29.00
2018-05-13T12:59:39.273Z,29.30
2018-05-13T13:02:10.787Z,29.30
2018-05-13T13:04:42.186Z,29.40
2018-05-13T13:07:12.842Z,29.40
2018-05-13T13:09:43.242Z,29.40
2018-05-13T13:12:14.155Z,29.50
2018-05-13T13:14:45.136Z,29.60
2018-05-13T13:17:16.617Z,29.30
2018-05-13T13:19:47.030Z,29.40
2018-05-13T13:22:17.666Z,29.40
2018-05-13T13:24:48.291Z,29.10
2018-05-13T13:27:19.758Z,28.50
2018-05-13T13:29:50.164Z,28.50
2018-05-13T13:32:20.641Z,28.40
2018-05-13T13:34:51.743Z,28.40
2018-05-13T13:37:23.750Z,28.20
2018-05-13T13:39:54.277Z,27.90
2018-05-13T13:42:25.038Z,28.00
2018-05-13T13:44:55.571Z,27.90
2018-05-13T13:47:26.149Z,27.70
2018-05-13T13:49:56.497Z,27.60
2018-05-13T13:52:27.199Z,27.30
2018-05-13T13:54:58.277Z,27.20
2018-05-13T13:57:28.746Z,27.20
2018-05-13T14:00:00.505Z,27.40
2018-05-13T14:02:31.422Z,27.40
2018-05-13T14:05:02.019Z,27.40
2018-05-13T14:07:34.063Z,27.50
2018-05-13T14:10:04.686Z,27.50
2018-05-13T14:12:35.095Z,27.50
2018-05-13T14:15:07.162Z,27.50
2018-05-13T14:17:37.673Z,27.60
2018-05-13T14:20:08.210Z,27.50
2018-05-13T14:22:41.578Z,27.20
2018-05-13T14:25:12.038Z,26.90
2018-05-13T14:27:42.464Z,26.30
2018-05-13T14:30:13.074Z,25.20
2018-05-13T14:32:43.411Z,24.70
2018-05-13T14:35:14.559Z,24.50
2018-05-13T14:37:44.937Z,24.50
2018-05-13T14:40:15.508Z,24.30
2018-05-13T14:42:45.983Z,24.10
2018-05-13T14:45:16.515Z,23.80
2018-05-13T14:47:46.868Z,23.00
2018-05-13T14:50:17.158Z,21.80
2018-05-13T14:52:48.480Z,17.90
2018-05-13T14:55:18.845Z,17.70
2018-05-13T14:57:50.661Z,16.90
2018-05-13T15:00:21.113Z,17.10
2018-05-13T15:02:51.432Z,17.00
2018-05-13T15:05:22.994Z,17.20
2018-05-13T15:07:54.029Z,17.50
2018-05-13T15:10:25.099Z,17.60
2018-05-13T15:13:01.744Z,17.60
2018-05-13T15:15:32.058Z,17.70
2018-05-13T15:18:02.484Z,17.70
2018-05-13T15:20:32.803Z,17.80
2018-05-13T15:23:03.173Z,17.70
2018-05-13T15:25:33.468Z,17.60
2018-05-13T15:28:04.137Z,17.70
2018-05-13T15:30:34.429Z,17.90
2018-05-13T15:33:04.737Z,18.00
2018-05-13T15:35:35.019Z,18.10
2018-05-13T15:38:05.715Z,18.20
2018-05-13T15:40:35.989Z,18.30
2018-05-13T15:43:07.323Z,18.10
2018-05-13T15:45:37.518Z,18.10
2018-05-13T15:48:07.907Z,18.10
2018-05-13T15:50:38.217Z,17.90
2018-05-13T15:53:08.394Z,17.70
2018-05-13T15:55:38.697Z,17.80
2018-05-13T15:58:09.095Z,17.90
2018-05-13T16:00:39.326Z,18.00
2018-05-13T16:03:09.617Z,18.10
2018-05-13T16:05:39.863Z,18.20
2018-05-13T16:08:11.283Z,18.20
2018-05-13T16:10:50.360Z,18.20
2018-05-13T16:13:21.267Z,18.10
2018-05-13T16:15:51.591Z,18.10
2018-05-13T16:18:22.059Z,18.10
2018-05-13T16:20:53.120Z,18.20
2018-05-13T16:23:23.418Z,18.10
2018-05-13T16:25:53.637Z,18.10
2018-05-13T16:28:23.867Z,18.10
2018-05-13T16:30:54.214Z,17.80
2018-05-13T16:33:24.584Z,17.70
2018-05-13T16:35:55.008Z,17.60
2018-05-13T16:38:25.373Z,17.60
2018-05-13T16:40:55.608Z,17.60
2018-05-13T16:43:26.810Z,17.70
2018-05-13T16:45:57.879Z,17.70
2018-05-13T16:48:28.301Z,17.70
2018-05-13T16:50:58.962Z,17.80
2018-05-13T16:53:35.817Z,17.90
2018-05-13T16:56:08.069Z,17.40
2018-05-13T16:58:38.430Z,17.40
2018-05-13T17:01:13.119Z,16.90
2018-05-13T17:03:44.839Z,16.80
2018-05-13T17:06:15.782Z,16.90
2018-05-13T17:08:48.276Z,17.00
2018-05-13T17:11:18.825Z,17.20
2018-05-13T17:13:53.006Z,17.20
2018-05-13T17:16:23.236Z,17.20
2018-05-13T17:18:53.616Z,17.20
2018-05-13T17:21:23.865Z,17.30
2018-05-13T17:23:56.197Z,17.20
2018-05-13T17:26:26.622Z,17.10
2018-05-13T17:28:57.090Z,17.00
2018-05-13T17:31:28.194Z,17.10
2018-05-13T17:33:58.958Z,17.10
2018-05-13T17:36:29.490Z,17.10
2018-05-13T17:39:00.720Z,17.20
2018-05-13T17:41:31.083Z,17.10
2018-05-13T17:44:01.386Z,17.10
2018-05-13T17:46:32.397Z,17.10
2018-05-13T17:49:06.710Z,17.00
2018-05-13T17:51:37.280Z,17.00
2018-05-13T17:54:07.733Z,17.10
2018-05-13T17:56:38.306Z,17.10
2018-05-13T17:59:09.394Z,17.00
2018-05-13T18:01:43.205Z,17.10
2018-05-13T18:04:14.393Z,17.10
2018-05-13T18:06:46.263Z,17.20
2018-05-13T18:09:16.710Z,17.20
2018-05-13T18:11:48.091Z,17.10
2018-05-13T18:14:18.346Z,17.10
2018-05-13T18:16:49.340Z,17.10
2018-05-13T18:19:19.778Z,17.10
2018-05-13T18:21:51.357Z,17.10
2018-05-13T18:24:21.530Z,17.10
2018-05-13T18:26:51.865Z,17.10
2018-05-13T18:29:29.641Z,17.10
2018-05-13T18:31:59.825Z,17.10
2018-05-13T18:34:30.175Z,17.10
2018-05-13T18:37:01.773Z,17.10
2018-05-13T18:39:31.955Z,17.00
2018-05-13T18:42:02.675Z,17.00
2018-05-13T18:44:37.266Z,16.80
2018-05-13T18:47:07.722Z,16.90
2018-05-13T18:49:37.929Z,16.90
2018-05-13T18:52:08.252Z,16.90
2018-05-13T18:54:38.484Z,16.90
2018-05-13T18:57:09.119Z,17.00
2018-05-13T18:59:39.989Z,17.00
2018-05-13T19:02:14.032Z,17.10
2018-05-13T19:04:44.352Z,17.10
2018-05-13T19:07:15.329Z,17.00
2018-05-13T19:09:46.383Z,17.10
2018-05-13T19:12:17.291Z,17.10
2018-05-13T19:14:47.518Z,17.10
2018-05-13T19:17:17.708Z,17.00
2018-05-13T19:19:47.995Z,17.00
2018-05-13T19:22:18.226Z,17.00
2018-05-13T19:24:49.726Z,16.50
2018-05-13T19:27:19.901Z,16.50
2018-05-13T19:29:50.185Z,16.30
2018-05-13T19:32:25.994Z,16.10
2018-05-13T19:34:56.333Z,15.90
2018-05-13T19:37:26.579Z,15.90
2018-05-13T19:39:57.661Z,15.90
2018-05-13T19:42:28.802Z,16.00
2018-05-13T19:44:59.110Z,16.00
2018-05-13T19:47:29.523Z,16.30
2018-05-13T19:50:00.453Z,16.50
2018-05-13T19:52:30.754Z,16.50
2018-05-13T19:55:02.358Z,16.70
2018-05-13T19:57:32.869Z,16.60
2018-05-13T20:00:03.211Z,16.70
2018-05-13T20:02:33.614Z,16.70
2018-05-13T20:05:03.895Z,16.70
2018-05-13T20:07:38.352Z,16.70
2018-05-13T20:10:08.551Z,16.70
2018-05-13T20:12:39.958Z,16.70
2018-05-13T20:15:12.915Z,16.70
2018-05-13T20:17:43.172Z,16.70
2018-05-13T20:20:13.365Z,16.70
2018-05-13T20:22:44.810Z,16.70
2018-05-13T20:25:15.905Z,16.80
2018-05-13T20:27:46.226Z,16.80
2018-05-13T20:30:16.406Z,16.80
2018-05-13T20:32:48.509Z,16.70
2018-05-13T20:35:19.774Z,16.70
2018-05-13T20:37:50.923Z,16.70
2018-05-13T20:40:22.365Z,16.70
2018-05-13T20:42:56.747Z,16.60
2018-05-13T20:45:26.969Z,16.60
2018-05-13T20:47:57.113Z,16.50
2018-05-13T20:50:27.662Z,16.50
2018-05-13T20:52:57.930Z,16.50
2018-05-13T20:55:28.169Z,16.50
2018-05-13T20:58:09.837Z,16.50
2018-05-13T21:00:41.776Z,16.50
2018-05-13T21:03:11.962Z,16.50
2018-05-13T21:05:42.240Z,16.40
2018-05-13T21:08:13.207Z,16.40
2018-05-13T21:10:43.825Z,16.40
2018-05-13T21:13:15.363Z,16.40
2018-05-13T21:15:45.649Z,16.40
2018-05-13T21:18:17.286Z,16.30
2018-05-13T21:20:48.001Z,16.30
2018-05-13T21:23:19.107Z,16.20
2018-05-13T21:25:54.515Z,16.20
2018-05-13T21:28:24.690Z,16.20
2018-05-13T21:30:54.973Z,16.20
2018-05-13T21:33:25.224Z,16.20
2018-05-13T21:35:55.786Z,16.20
2018-05-13T21:38:25.937Z,16.20
2018-05-13T21:40:57.124Z,16.20
2018-05-13T21:43:27.424Z,16.20
2018-05-13T21:45:57.598Z,16.10
2018-05-13T21:48:32.728Z,16.00
2018-05-13T21:51:03.039Z,16.00
2018-05-13T21:53:35.090Z,16.00
2018-05-13T21:56:05.327Z,16.00
2018-05-13T21:58:35.946Z,16.00
2018-05-13T22:01:06.422Z,16.00
2018-05-13T22:03:37.395Z,16.00
2018-05-13T22:06:07.822Z,16.00
2018-05-13T22:08:38.103Z,15.90
2018-05-13T22:11:08.857Z,15.80
2018-05-13T22:13:45.413Z,15.80
2018-05-13T22:16:16.239Z,15.80
2018-05-13T22:18:50.199Z,15.80
2018-05-13T22:21:26.929Z,15.80
2018-05-13T22:23:58.633Z,15.80
2018-05-13T22:26:28.782Z,15.80
2018-05-13T22:28:59.157Z,15.80
2018-05-13T22:31:29.398Z,15.80
2018-05-13T22:33:59.618Z,15.70
2018-05-13T22:36:29.857Z,15.70
2018-05-13T22:39:00.279Z,15.60
2018-05-13T22:41:30.439Z,15.60
2018-05-13T22:44:00.734Z,15.60
2018-05-13T22:46:30.914Z,15.60
2018-05-13T22:49:01.170Z,15.70
2018-05-13T22:51:31.330Z,15.60
2018-05-13T22:54:02.229Z,15.60
2018-05-13T22:56:34.799Z,15.60
2018-05-13T22:59:05.043Z,15.60
2018-05-13T23:01:35.205Z,15.60
2018-05-13T23:04:05.357Z,15.60
2018-05-13T23:06:35.609Z,15.60
2018-05-13T23:09:05.876Z,15.60
2018-05-13T23:11:37.417Z,15.60
2018-05-13T23:14:09.278Z,15.50
2018-05-13T23:16:39.391Z,15.50
2018-05-13T23:19:10.261Z,15.50
2018-05-13T23:21:40.498Z,15.50
2018-05-13T23:24:10.674Z,15.50
2018-05-13T23:26:40.781Z,15.50
2018-05-13T23:29:10.925Z,15.50
2018-05-13T23:31:43.389Z,15.40
2018-05-13T23:34:13.530Z,15.40
2018-05-13T23:36:43.671Z,15.40
2018-05-13T23:39:14.150Z,15.40
2018-05-13T23:41:44.289Z,15.40
2018-05-13T23:44:14.413Z,15.40
2018-05-13T23:46:46.531Z,15.40
2018-05-13T23:49:16.775Z,15.40
2018-05-13T23:51:46.902Z,15.40
2018-05-13T23:54:17.010Z,15.40
2018-05-13T23:56:48.021Z,15.40
2018-05-13T23:59:18.183Z,15.40
